createdAt,value
2018-11-28T00:01:27.653Z,12.90
2018-11-28T00:03:55.788Z,14.23
2018-11-28T00:06:23.935Z,14.47
2018-11-28T00:08:52.080Z,14.67
2018-11-28T00:11:20.262Z,14.50
2018-11-28T00:13:48.412Z,15.17
2018-11-28T00:16:16.591Z,13.73
2018-11-28T00:18:44.725Z,14.13
2018-11-28T00:21:12.885Z,14.10
2018-11-28T00:23:41.067Z,14.17
2018-11-28T00:26:09.230Z,14.23
2018-11-28T00:28:37.369Z,14.83
2018-11-28T00:31:05.560Z,14.57
2018-11-28T00:33:33.725Z,14.53
2018-11-28T00:36:01.873Z,15.30
2018-11-28T00:38:30.007Z,13.20
2018-11-28T00:40:58.144Z,14.43
2018-11-28T00:43:26.296Z,14.33
2018-11-28T00:45:54.470Z,14.10
2018-11-28T00:48:22.627Z,14.20
2018-11-28T00:50:50.778Z,14.27
2018-11-28T00:53:18.945Z,14.67
2018-11-28T00:55:48.548Z,14.67
2018-11-28T00:58:15.248Z,14.73
2018-11-28T01:00:43.407Z,16.00
2018-11-28T01:03:11.540Z,15.33
2018-11-28T01:05:39.676Z,14.97
2018-11-28T01:08:07.843Z,16.70
2018-11-28T01:10:36.018Z,15.80
2018-11-28T01:13:04.149Z,14.57
2018-11-28T01:15:32.312Z,14.17
2018-11-28T01:18:00.497Z,15.97
2018-11-28T01:20:28.669Z,14.57
2018-11-28T01:22:56.861Z,15.77
2018-11-28T01:25:25.003Z,15.23
2018-11-28T01:27:53.158Z,15.87
2018-11-28T01:30:22.328Z,14.27
2018-11-28T01:32:50.537Z,16.73
2018-11-28T01:35:19.516Z,16.03
2018-11-28T01:37:47.740Z,16.07
2018-11-28T01:40:20.876Z,15.53
2018-11-28T01:42:49.054Z,16.57
2018-11-28T01:45:19.176Z,15.50
2018-11-28T01:47:47.421Z,15.60
2018-11-28T01:50:16.492Z,15.77
2018-11-28T01:52:44.653Z,16.23
2018-11-28T01:55:17.756Z,15.93
2018-11-28T01:57:45.929Z,16.70
2018-11-28T02:00:20.398Z,15.93
2018-11-28T02:02:50.878Z,15.17
2018-11-28T02:05:19.064Z,14.93
2018-11-28T02:07:47.201Z,15.83
2018-11-28T02:10:16.072Z,14.70
2018-11-28T02:12:44.212Z,15.70
2018-11-28T02:15:15.421Z,14.80
2018-11-28T02:17:43.591Z,15.33
2018-11-28T02:20:12.802Z,16.43
2018-11-28T02:22:40.969Z,14.30
2018-11-28T02:25:11.412Z,15.07
2018-11-28T02:27:39.568Z,16.47
2018-11-28T02:30:11.463Z,16.73
2018-11-28T02:32:39.640Z,14.90
2018-11-28T02:35:09.327Z,16.97
2018-11-28T02:37:37.812Z,16.07
2018-11-28T02:40:07.837Z,16.30
2018-11-28T02:42:36.009Z,16.50
2018-11-28T02:45:05.821Z,16.03
2018-11-28T02:47:33.960Z,16.00
2018-11-28T02:50:02.114Z,16.50
2018-11-28T02:52:30.266Z,16.70
2018-11-28T02:54:58.451Z,16.63
2018-11-28T02:57:26.621Z,15.43
2018-11-28T02:59:54.766Z,15.40
2018-11-28T03:02:22.922Z,15.33
2018-11-28T03:04:51.091Z,14.63
2018-11-28T03:07:19.257Z,14.83
2018-11-28T03:09:47.406Z,14.80
2018-11-28T03:12:15.534Z,15.03
2018-11-28T03:14:43.694Z,15.43
2018-11-28T03:17:17.317Z,15.27
2018-11-28T03:19:45.482Z,15.07
2018-11-28T03:22:13.624Z,15.10
2018-11-28T03:24:41.765Z,15.83
2018-11-28T03:27:09.966Z,16.13
2018-11-28T03:29:38.157Z,16.90
2018-11-28T03:32:06.338Z,14.87
2018-11-28T03:34:34.469Z,15.03
2018-11-28T03:37:02.626Z,15.20
2018-11-28T03:39:30.825Z,16.63
2018-11-28T03:41:58.981Z,16.57
2018-11-28T03:44:27.138Z,15.10
2018-11-28T03:46:55.304Z,15.57
2018-11-28T03:49:23.461Z,14.50
2018-11-28T03:51:51.642Z,15.17
2018-11-28T03:54:19.795Z,14.97
2018-11-28T03:56:47.925Z,15.77
2018-11-28T03:59:16.073Z,14.17
2018-11-28T04:01:44.222Z,15.87
2018-11-28T04:04:12.370Z,15.47
2018-11-28T04:06:40.597Z,15.50
2018-11-28T04:09:08.883Z,15.70
2018-11-28T04:11:36.961Z,17.20
2018-11-28T04:14:05.150Z,15.53
2018-11-28T04:16:33.344Z,16.17
2018-11-28T04:19:04.496Z,15.70
2018-11-28T04:21:32.710Z,15.07
2018-11-28T04:24:01.137Z,15.93
2018-11-28T04:26:29.299Z,16.87
2018-11-28T04:28:57.477Z,15.70
2018-11-28T04:31:25.631Z,14.93
2018-11-28T04:33:53.833Z,16.37
2018-11-28T04:36:21.990Z,16.30
2018-11-28T04:38:50.136Z,15.23
2018-11-28T04:41:18.283Z,15.97
2018-11-28T04:43:46.453Z,16.73
2018-11-28T04:46:14.618Z,15.63
2018-11-28T04:48:42.768Z,14.40
2018-11-28T04:51:10.919Z,14.73
2018-11-28T04:53:39.086Z,16.53
2018-11-28T04:56:07.229Z,16.87
2018-11-28T04:58:35.409Z,15.80
2018-11-28T05:01:03.567Z,16.33
2018-11-28T05:03:31.734Z,16.17
2018-11-28T05:05:59.876Z,15.53
2018-11-28T05:08:28.070Z,16.47
2018-11-28T05:10:56.261Z,16.13
2018-11-28T05:13:24.673Z,16.80
2018-11-28T05:15:52.838Z,16.50
2018-11-28T05:18:20.988Z,15.43
2018-11-28T05:20:49.154Z,16.13
2018-11-28T05:23:17.422Z,16.83
2018-11-28T05:25:45.619Z,16.97
2018-11-28T05:28:14.557Z,17.50
2018-11-28T05:30:42.696Z,15.90
2018-11-28T05:33:11.010Z,17.53
2018-11-28T05:35:40.207Z,16.93
2018-11-28T05:38:12.101Z,16.33
2018-11-28T05:40:40.613Z,18.50
2018-11-28T05:43:08.850Z,16.30
2018-11-28T05:45:37.281Z,16.97
2018-11-28T05:48:05.849Z,16.03
2018-11-28T05:50:34.170Z,16.17
2018-11-28T05:53:02.382Z,17.27
2018-11-28T05:55:30.613Z,16.87
2018-11-28T05:57:58.788Z,15.50
2018-11-28T06:00:33.022Z,15.20
2018-11-28T06:03:01.190Z,16.03
2018-11-28T06:05:29.402Z,14.83
2018-11-28T06:07:57.589Z,17.20
2018-11-28T06:10:25.773Z,17.13
2018-11-28T06:12:53.926Z,16.30
2018-11-28T06:15:22.118Z,15.03
2018-11-28T06:17:50.365Z,16.23
2018-11-28T06:20:18.545Z,15.83
2018-11-28T06:22:46.762Z,16.87
2018-11-28T06:25:16.888Z,16.37
2018-11-28T06:27:44.363Z,17.53
2018-11-28T06:30:14.597Z,17.33
2018-11-28T06:32:43.717Z,17.43
2018-11-28T06:35:12.200Z,17.27
2018-11-28T06:37:40.775Z,16.23
2018-11-28T06:40:11.766Z,17.63
2018-11-28T06:42:40.025Z,16.03
2018-11-28T06:45:10.594Z,16.87
2018-11-28T06:47:38.793Z,17.40
2018-11-28T06:50:14.852Z,17.30
2018-11-28T06:52:43.959Z,17.63
2018-11-28T06:55:13.553Z,17.97
2018-11-28T06:57:42.440Z,15.70
2018-11-28T07:00:17.818Z,15.80
2018-11-28T07:02:46.375Z,17.40
2018-11-28T07:05:14.642Z,14.77
2018-11-28T07:07:49.773Z,16.73
2018-11-28T07:10:19.013Z,17.00
2018-11-28T07:12:47.188Z,16.23
2018-11-28T07:15:16.457Z,15.30
2018-11-28T07:17:44.944Z,17.20
2018-11-28T07:20:15.124Z,16.33
2018-11-28T07:22:43.350Z,16.67
2018-11-28T07:25:12.655Z,15.73
2018-11-28T07:27:45.021Z,17.37
2018-11-28T07:30:13.005Z,15.57
2018-11-28T07:32:41.244Z,15.33
2018-11-28T07:35:10.143Z,16.37
2018-11-28T07:37:38.733Z,16.50
2018-11-28T07:40:12.548Z,17.73
2018-11-28T07:42:41.420Z,16.93
2018-11-28T07:45:11.235Z,16.10
2018-11-28T07:47:39.422Z,16.53
2018-11-28T07:50:08.929Z,17.03
2018-11-28T07:52:37.477Z,16.17
2018-11-28T07:55:07.530Z,16.50
2018-11-28T07:57:35.812Z,16.80
2018-11-28T08:00:04.804Z,16.50
2018-11-28T08:02:33.053Z,16.37
2018-11-28T08:05:01.321Z,16.23
2018-11-28T08:07:29.523Z,16.67
2018-11-28T08:09:57.747Z,17.93
2018-11-28T08:12:25.985Z,17.73
2018-11-28T08:14:54.160Z,18.53
2018-11-28T08:17:22.373Z,16.93
2018-11-28T08:19:50.590Z,17.70
2018-11-28T08:22:19.704Z,19.07
2018-11-28T08:24:47.910Z,17.10
2018-11-28T08:27:16.097Z,17.03
2018-11-28T08:29:44.315Z,17.30
2018-11-28T08:32:12.458Z,15.70
2018-11-28T08:34:40.709Z,16.80
2018-11-28T08:37:08.937Z,16.57
2018-11-28T08:39:37.120Z,18.87
2018-11-28T08:42:06.209Z,16.67
2018-11-28T08:44:34.441Z,17.60
2018-11-28T08:47:02.752Z,19.13
2018-11-28T08:49:31.181Z,19.83
2018-11-28T08:51:59.365Z,17.70
2018-11-28T08:54:27.552Z,18.07
2018-11-28T08:56:56.294Z,17.50
2018-11-28T08:59:24.516Z,17.50
2018-11-28T09:01:52.770Z,17.03
2018-11-28T09:04:21.090Z,18.23
2018-11-28T09:06:49.426Z,17.63
2018-11-28T09:09:17.716Z,16.50
2018-11-28T09:11:46.025Z,17.93
2018-11-28T09:14:14.283Z,16.90
2018-11-28T09:16:42.557Z,16.27
2018-11-28T09:19:10.713Z,19.50
2018-11-28T09:21:38.977Z,16.77
2018-11-28T09:24:07.360Z,18.40
2018-11-28T09:26:35.569Z,15.47
2018-11-28T09:29:03.718Z,16.43
2018-11-28T09:31:31.912Z,16.97
2018-11-28T09:34:00.063Z,18.03
2018-11-28T09:36:28.671Z,19.17
2018-11-28T09:38:56.861Z,17.40
2018-11-28T09:41:25.157Z,16.10
2018-11-28T09:43:53.337Z,19.37
2018-11-28T09:46:21.566Z,18.83
2018-11-28T09:48:49.797Z,18.07
2018-11-28T09:51:18.014Z,17.60
2018-11-28T09:53:46.244Z,17.30
2018-11-28T09:56:14.506Z,16.57
2018-11-28T09:58:42.720Z,15.80
2018-11-28T10:01:10.922Z,17.17
2018-11-28T10:03:39.101Z,19.03
2018-11-28T10:06:07.348Z,18.43
2018-11-28T10:08:35.541Z,18.87
2018-11-28T10:11:03.704Z,17.30
2018-11-28T10:13:31.893Z,17.97
2018-11-28T10:16:01.536Z,18.63
2018-11-28T10:18:28.260Z,16.73
2018-11-28T10:20:56.400Z,17.10
2018-11-28T10:23:24.673Z,18.47
2018-11-28T10:25:53.479Z,17.43
2018-11-28T10:28:21.672Z,18.27
2018-11-28T10:30:49.972Z,18.17
2018-11-28T10:33:18.167Z,17.43
2018-11-28T10:35:46.664Z,17.60
2018-11-28T10:38:14.674Z,17.30
2018-11-28T10:40:42.956Z,16.67
2018-11-28T10:43:11.161Z,18.50
2018-11-28T10:45:39.386Z,17.97
2018-11-28T10:48:09.325Z,15.90
2018-11-28T10:50:37.603Z,16.80
2018-11-28T10:53:06.285Z,18.00
2018-11-28T10:55:34.519Z,18.00
2018-11-28T10:58:02.689Z,18.20
2018-11-28T11:00:36.584Z,15.83
2018-11-28T11:03:11.361Z,17.23
2018-11-28T11:05:45.018Z,17.77
2018-11-28T11:08:18.564Z,16.50
2018-11-28T11:10:52.029Z,18.13
2018-11-28T11:13:25.561Z,17.07
2018-11-28T11:15:58.737Z,15.40
2018-11-28T11:18:27.807Z,17.73
2018-11-28T11:20:56.417Z,18.73
2018-11-28T11:23:25.422Z,17.80
2018-11-28T11:26:01.216Z,16.47
2018-11-28T11:28:29.388Z,19.97
2018-11-28T11:30:58.565Z,18.43
2018-11-28T11:33:26.784Z,18.87
2018-11-28T11:35:54.951Z,18.03
2018-11-28T11:38:23.181Z,16.50
2018-11-28T11:40:52.121Z,18.00
2018-11-28T11:43:20.392Z,15.80
2018-11-28T11:45:52.331Z,15.40
2018-11-28T11:48:20.465Z,16.93
2018-11-28T11:50:49.330Z,15.30
2018-11-28T11:53:17.526Z,16.17
2018-11-28T11:55:45.778Z,15.43
2018-11-28T11:58:13.924Z,16.07
2018-11-28T12:00:43.518Z,16.53
2018-11-28T12:03:12.833Z,16.73
2018-11-28T12:05:42.549Z,16.37
2018-11-28T12:08:10.728Z,16.07
2018-11-28T12:10:39.010Z,17.67
2018-11-28T12:13:07.181Z,13.20
2018-11-28T12:15:35.820Z,15.70
2018-11-28T12:18:03.660Z,14.23
2018-11-28T12:20:44.849Z,14.97
2018-11-28T12:23:13.081Z,14.40
2018-11-28T12:25:41.268Z,15.63
2018-11-28T12:28:09.448Z,15.47
2018-11-28T12:30:37.698Z,15.37
2018-11-28T12:33:06.638Z,16.20
2018-11-28T12:35:34.881Z,14.33
2018-11-28T12:38:03.207Z,15.27
2018-11-28T12:40:32.633Z,15.60
2018-11-28T12:43:01.258Z,14.30
2018-11-28T12:45:29.452Z,16.37
2018-11-28T12:47:57.609Z,15.10
2018-11-28T12:50:28.721Z,12.67
2018-11-28T12:52:58.221Z,14.70
2018-11-28T12:55:26.433Z,14.77
2018-11-28T12:57:55.584Z,14.93
2018-11-28T13:00:24.996Z,14.40
2018-11-28T13:02:53.180Z,16.00
2018-11-28T13:05:22.561Z,13.57
2018-11-28T13:07:50.780Z,13.33
2018-11-28T13:10:20.217Z,13.83
2018-11-28T13:12:49.165Z,13.23
2018-11-28T13:15:18.222Z,13.30
2018-11-28T13:17:46.400Z,15.23
2018-11-28T13:20:15.582Z,14.77
2018-11-28T13:22:43.968Z,12.40
2018-11-28T13:25:14.300Z,12.40
2018-11-28T13:27:42.818Z,12.20
2018-11-28T13:30:15.069Z,13.90
2018-11-28T13:32:43.616Z,13.70
2018-11-28T13:35:12.856Z,12.10
2018-11-28T13:37:41.417Z,12.10
2018-11-28T13:40:11.842Z,12.33
2018-11-28T13:42:40.092Z,14.50
2018-11-28T13:45:13.442Z,13.10
2018-11-28T13:47:42.446Z,12.77
2018-11-28T13:50:11.061Z,11.63
2018-11-28T13:52:39.237Z,11.43
2018-11-28T13:57:41.546Z,11.33
2018-11-28T14:00:10.190Z,12.17
2018-11-28T14:02:38.597Z,13.13
2018-11-28T14:05:08.955Z,12.70
2018-11-28T14:07:37.087Z,13.00
2018-11-28T14:10:08.673Z,13.00
2018-11-28T14:12:36.924Z,11.10
2018-11-28T14:15:07.906Z,11.20
2018-11-28T14:17:36.065Z,11.53
2018-11-28T14:20:04.237Z,11.73
2018-11-28T14:22:32.388Z,13.03
2018-11-28T14:25:00.605Z,13.33
2018-11-28T14:27:28.784Z,13.50
2018-11-28T14:29:56.958Z,13.37
2018-11-28T14:32:25.090Z,13.27
2018-11-28T14:34:54.077Z,13.60
2018-11-28T14:37:22.316Z,12.63
2018-11-28T14:39:50.461Z,13.50
2018-11-28T14:42:18.601Z,12.70
2018-11-28T14:44:46.754Z,13.90
2018-11-28T14:47:14.884Z,13.27
2018-11-28T14:49:43.076Z,13.57
2018-11-28T14:52:11.281Z,13.33
2018-11-28T14:54:39.400Z,11.77
2018-11-28T14:57:07.565Z,12.03
2018-11-28T14:59:40.359Z,11.60
2018-11-28T15:02:03.949Z,12.10
2018-11-28T15:04:32.117Z,12.53
2018-11-28T15:07:01.463Z,12.40
2018-11-28T15:09:36.437Z,12.07
2018-11-28T15:12:11.598Z,13.93
2018-11-28T15:14:35.744Z,12.20
2018-11-28T15:17:03.913Z,14.77
2018-11-28T15:19:32.107Z,12.53
2018-11-28T15:22:00.281Z,12.97
2018-11-28T15:24:28.478Z,15.67
2018-11-28T15:26:56.633Z,14.27
2018-11-28T15:29:24.813Z,13.30
2018-11-28T15:31:53.017Z,13.73
2018-11-28T15:34:21.218Z,14.63
2018-11-28T15:36:49.360Z,15.30
2018-11-28T15:39:17.509Z,13.97
2018-11-28T15:41:45.659Z,14.90
2018-11-28T15:44:13.865Z,16.43
2018-11-28T15:46:42.105Z,16.70
2018-11-28T15:49:10.256Z,14.97
2018-11-28T15:51:38.409Z,16.47
2018-11-28T15:54:06.633Z,14.97
2018-11-28T15:56:34.821Z,14.50
2018-11-28T15:59:02.982Z,15.33
2018-11-28T16:01:31.145Z,16.77
2018-11-28T16:03:59.289Z,15.30
2018-11-28T16:06:27.446Z,15.97
2018-11-28T16:08:55.638Z,18.43
2018-11-28T16:11:24.450Z,18.97
2018-11-28T16:13:52.628Z,15.17
2018-11-28T16:16:20.764Z,17.80
2018-11-28T16:18:49.028Z,17.00
2018-11-28T16:21:17.277Z,16.40
2018-11-28T16:23:45.461Z,20.43
2018-11-28T16:26:13.661Z,20.93
2018-11-28T16:28:41.823Z,17.73
2018-11-28T16:31:09.995Z,16.97
2018-11-28T16:33:38.140Z,17.60
2018-11-28T16:36:06.337Z,17.73
2018-11-28T16:38:34.468Z,19.47
2018-11-28T16:41:02.617Z,19.33
2018-11-28T16:43:30.810Z,19.77
2018-11-28T16:45:58.993Z,18.03
2018-11-28T16:48:27.164Z,19.37
2018-11-28T16:50:55.316Z,18.53
2018-11-28T16:53:23.477Z,17.53
2018-11-28T16:55:51.683Z,20.33
2018-11-28T16:58:19.853Z,20.50
2018-11-28T17:00:47.988Z,17.87
2018-11-28T17:03:16.236Z,19.23
2018-11-28T17:05:44.379Z,17.97
2018-11-28T17:08:12.592Z,19.53
2018-11-28T17:10:40.776Z,19.83
2018-11-28T17:13:08.936Z,22.43
2018-11-28T17:15:37.074Z,21.97
2018-11-28T17:18:06.057Z,18.87
2018-11-28T17:20:34.211Z,19.10
2018-11-28T17:23:02.438Z,18.30
2018-11-28T17:25:32.185Z,20.57
2018-11-28T17:28:00.481Z,21.10
2018-11-28T17:30:30.746Z,20.17
2018-11-28T17:32:58.942Z,18.60
2018-11-28T17:35:27.076Z,19.17
2018-11-28T17:37:55.229Z,18.97
2018-11-28T17:40:27.497Z,20.97
2018-11-28T17:42:57.825Z,20.40
2018-11-28T17:45:26.390Z,21.10
2018-11-28T17:47:54.580Z,21.63
2018-11-28T17:50:23.859Z,20.73
2018-11-28T17:53:10.163Z,19.70
2018-11-28T17:55:43.418Z,19.27
2018-11-28T17:58:10.910Z,19.17
2018-11-28T18:00:39.208Z,18.07
2018-11-28T18:03:07.397Z,18.67
2018-11-28T18:05:35.556Z,16.07
2018-11-28T18:08:03.725Z,18.87
2018-11-28T18:10:31.973Z,18.40
2018-11-28T18:13:07.753Z,18.90
2018-11-28T18:15:35.892Z,18.27
2018-11-28T18:18:04.550Z,18.17
2018-11-28T18:20:32.715Z,16.97
2018-11-28T18:23:00.878Z,16.90
2018-11-28T18:25:30.442Z,17.37
2018-11-28T18:27:58.580Z,16.43
2018-11-28T18:30:26.750Z,15.80
2018-11-28T18:32:55.009Z,15.43
2018-11-28T18:35:23.164Z,15.53
2018-11-28T18:37:51.328Z,16.10
2018-11-28T18:40:19.545Z,15.67
2018-11-28T18:42:47.709Z,15.20
2018-11-28T18:45:20.528Z,16.87
2018-11-28T18:47:48.908Z,14.00
2018-11-28T18:50:17.221Z,14.93
2018-11-28T18:52:45.386Z,14.97
2018-11-28T18:55:16.718Z,14.40
2018-11-28T18:57:43.115Z,14.47
2018-11-28T19:00:13.717Z,15.50
2018-11-28T19:02:42.748Z,13.90
2018-11-28T19:05:10.257Z,13.73
2018-11-28T19:07:38.404Z,14.03
2018-11-28T19:10:09.661Z,13.33
2018-11-28T19:12:37.825Z,13.40
2018-11-28T19:15:09.073Z,13.33
2018-11-28T19:17:37.254Z,15.07
2018-11-28T19:20:08.293Z,13.73
2018-11-28T19:22:36.437Z,12.93
2018-11-28T19:25:06.564Z,12.23
2018-11-28T19:27:34.728Z,12.37
2018-11-28T19:30:02.952Z,13.17
2018-11-28T19:32:31.183Z,13.80
2018-11-28T19:34:59.353Z,13.90
2018-11-28T19:37:27.494Z,13.27
2018-11-28T19:39:55.659Z,13.70
2018-11-28T19:42:23.852Z,13.63
2018-11-28T19:44:52.126Z,11.13
2018-11-28T19:47:20.241Z,11.57
2018-11-28T19:49:48.393Z,11.50
2018-11-28T19:52:16.624Z,12.97
2018-11-28T19:54:44.814Z,12.47
2018-11-28T19:57:12.976Z,11.93
2018-11-28T19:59:41.250Z,15.10
2018-11-28T20:02:09.433Z,10.80
2018-11-28T20:04:37.609Z,11.43
2018-11-28T20:07:06.062Z,10.57
2018-11-28T20:09:34.290Z,11.83
2018-11-28T20:12:02.452Z,13.30
2018-11-28T20:14:30.652Z,11.30
2018-11-28T20:16:58.998Z,11.90
2018-11-28T20:19:27.482Z,13.67
2018-11-28T20:21:55.669Z,11.73
2018-11-28T20:24:23.862Z,12.90
2018-11-28T20:26:52.066Z,10.67
2018-11-28T20:29:20.390Z,11.47
2018-11-28T20:31:48.709Z,12.80
2018-11-28T20:34:18.001Z,12.03
2018-11-28T20:36:47.008Z,11.57
2018-11-28T20:39:15.594Z,10.97
2018-11-28T20:41:44.435Z,9.87
2018-11-28T20:44:12.818Z,10.47
2018-11-28T20:46:41.463Z,12.00
2018-11-28T20:49:09.839Z,11.70
2018-11-28T20:51:38.422Z,11.67
2018-11-28T20:54:07.147Z,12.27
2018-11-28T20:56:36.432Z,11.50
2018-11-28T20:59:05.474Z,11.17
2018-11-28T21:01:33.777Z,10.97
2018-11-28T21:04:01.967Z,10.87
2018-11-28T21:06:30.118Z,11.30
2018-11-28T21:08:58.297Z,9.83
2018-11-28T21:11:26.440Z,10.53
2018-11-28T21:13:54.593Z,10.77
2018-11-28T21:16:22.749Z,10.13
2018-11-28T21:18:50.905Z,10.10
2018-11-28T21:21:19.064Z,10.47
2018-11-28T21:23:47.213Z,10.17
2018-11-28T21:26:15.386Z,9.80
2018-11-28T21:28:43.589Z,11.03
2018-11-28T21:31:11.767Z,9.43
2018-11-28T21:33:39.994Z,9.83
2018-11-28T21:36:08.336Z,9.37
2018-11-28T21:38:36.453Z,9.73
2018-11-28T21:41:04.923Z,9.93
2018-11-28T21:43:33.086Z,11.03
2018-11-28T21:46:01.303Z,8.93
2018-11-28T21:48:29.470Z,10.03
2018-11-28T21:50:57.626Z,9.83
2018-11-28T21:53:25.849Z,10.00
2018-11-28T21:55:54.036Z,9.97
2018-11-28T21:58:22.188Z,8.47
2018-11-28T22:00:50.334Z,9.27
2018-11-28T22:03:18.472Z,8.83
2018-11-28T22:05:46.682Z,9.03
2018-11-28T22:08:14.888Z,8.87
2018-11-28T22:10:43.024Z,8.37
2018-11-28T22:13:11.181Z,8.97
2018-11-28T22:15:39.333Z,8.73
2018-11-28T22:18:07.554Z,8.23
2018-11-28T22:20:35.708Z,9.30
2018-11-28T22:23:03.870Z,7.87
2018-11-28T22:25:32.113Z,8.73
2018-11-28T22:28:00.251Z,9.00
2018-11-28T22:30:29.060Z,8.07
2018-11-28T22:32:57.817Z,7.70
2018-11-28T22:35:26.053Z,8.60
2018-11-28T22:37:54.228Z,9.17
2018-11-28T22:40:25.481Z,9.10
2018-11-28T22:42:53.629Z,9.00
2018-11-28T22:45:29.713Z,8.63
2018-11-28T22:47:57.860Z,9.20
2018-11-28T22:50:26.017Z,8.60
2018-11-28T22:52:54.180Z,9.03
2018-11-28T22:55:22.332Z,9.27
2018-11-28T22:57:50.495Z,8.70
2018-11-28T23:00:24.879Z,8.10
2018-11-28T23:03:05.838Z,8.77
2018-11-28T23:05:37.921Z,8.00
2018-11-28T23:08:08.057Z,7.13
2018-11-28T23:10:36.829Z,7.40
2018-11-28T23:13:05.401Z,8.83
2018-11-28T23:15:33.630Z,9.70
2018-11-28T23:18:01.797Z,7.77
2018-11-28T23:20:29.977Z,8.23
2018-11-28T23:22:58.105Z,9.40
2018-11-28T23:25:26.293Z,7.63
2018-11-28T23:27:54.508Z,7.83
2018-11-28T23:30:29.334Z,8.40
2018-11-28T23:32:57.517Z,7.60
2018-11-28T23:35:25.738Z,6.33
2018-11-28T23:37:53.909Z,8.13
2018-11-28T23:40:22.865Z,8.53
2018-11-28T23:42:51.622Z,7.57
2018-11-28T23:45:19.805Z,7.87
2018-11-28T23:47:48.131Z,7.77
2018-11-28T23:50:18.109Z,7.60
2018-11-28T23:52:46.637Z,8.70
2018-11-28T23:55:30.768Z,8.50
2018-11-28T23:57:58.907Z,7.83
